首页
METAR-TAF:

METAR-TAF

机场 :

巴馬科國際機場

巴馬科, 马里共和国

纬度: 12-32N, 经度: 007-57W, 海拔: 380米

当前天气观测

该预报发布于36分钟前的06:00 UTC
风速2节,风向
温度 23°C
湿度 100%
气压 1015 hPa
能见度10公里或以上
少量云层高于2000英尺

METAR: GABS 170600Z 35002KT 9999 FEW020 23/23 Q1015 NOSIG

时间: 06:36 (06:36 UTC)

预报

该预报发布于1小时和36分钟前的05:00 UTC
预报有效从17日的 06点(UTC)到 18日的 12点(UTC)
风速8节,风向南转西南
能见度10公里或以上
少量云层高于2600英尺
几率 30% :
短暂存在
从 17日的 16点(UTC)到 17日的 22点(UTC)
散云层高于2600英尺
少量云层高于3000英尺, 积雨云.
雷暴
几率 30% :
短暂存在
从 18日的 15点(UTC)到 18日的 22点(UTC)
风速15节,风向多变
散云层高于2600英尺
少量云层高于3300英尺, 积雨云.
雷暴

TAF: GABS 170500Z 1706/1812 20008KT 9999 FEW026 PROB30 TEMPO 1716/1722 TS SCT026 FEW030CB PROB30 TEMPO 1815/1822 VRB15KT TS SCT026 FEW033CB

超过4000个机场的气象观测和天气预报(METAR&TAF报告)。

可查询的气象台以黄色和红色小点在地图上表示。

将鼠标移到小点上方,可查看气象台名称。

然后点击查看天气观测和预报。

如需切换地图:点击带黑十字的绿色按钮放大地图;点击带横线的绿色按钮缩小地图;或者点击绿色箭头查看邻近地区的地图。


METAR-TAF: